Pagina principale
METAR-TAF:

METAR-TAF

Aeroporti :

New Bedford, Massachusetts, Stati Uniti

latitudine: 41-40-31N, longitudine: 070-57-25W, altezza: 24 m

Osservazione

Il bollettino è stato emesso 18 minuti fa, alle 07:53 UTC
Vento calmo
Temperature 12°C
Umidità 100%
Pressione 1016 hPa
Visibilità: 16.1 km
Cielo sereno

METAR: KEWB 240753Z AUTO 00000KT 10SM CLR 12/12 A2999 RMK AO2 SLP154 T01220122

Ora: 04:11 (08:11 UTC)


TAF: mancante

Osservazioni e previsioni meteorologiche di più di 4000 aeroporti (messaggi METAR e TAF).

Le stazioni disponibili sono rappresentate dai dischi gialli e rossi sulla carta.

Puntare il mouse per vedere il nome della stazione.

Clicca sopra per visualizzare le osservazioni e previsioni meteorologiche.

Per cambiare la mappa : fare clic sui pulsanti verdi con una croce nera per ingrandire, il pulsante verde con un trattino per diminuire, o sulla freccia verde per le mappe adiacenti.


METAR-TAF: